createdAt,value
2023-03-04T00:01:16.955Z,7.18
2023-03-04T00:03:43.585Z,6.40
2023-03-04T00:06:10.395Z,6.20
2023-03-04T00:08:38.041Z,6.70
2023-03-04T00:11:04.980Z,6.30
2023-03-04T00:13:31.676Z,5.93
2023-03-04T00:15:58.310Z,6.45
2023-03-04T00:18:24.995Z,7.30
2023-03-04T00:20:51.756Z,6.72
2023-03-04T00:23:18.346Z,6.47
2023-03-04T00:25:45.054Z,6.82
2023-03-04T00:28:11.735Z,6.35
2023-03-04T00:30:38.956Z,7.18
2023-03-04T00:33:05.617Z,6.85
2023-03-04T00:35:32.389Z,7.55
2023-03-04T00:37:59.151Z,7.20
2023-03-04T00:40:27.213Z,6.22
2023-03-04T00:42:53.894Z,6.35
2023-03-04T00:45:20.656Z,6.70
2023-03-04T00:47:47.244Z,6.22
2023-03-04T00:50:13.945Z,6.30
2023-03-04T00:52:40.543Z,6.18
2023-03-04T00:55:08.361Z,6.38
2023-03-04T00:57:35.304Z,6.00
2023-03-04T01:00:02.154Z,6.38
2023-03-04T01:02:28.846Z,7.20
2023-03-04T01:04:55.554Z,5.75
2023-03-04T01:07:22.158Z,6.78
2023-03-04T01:09:48.872Z,7.50
2023-03-04T01:12:15.533Z,7.03
2023-03-04T01:14:43.568Z,7.03
2023-03-04T01:17:12.120Z,6.53
2023-03-04T01:19:38.838Z,6.38
2023-03-04T01:22:05.533Z,6.90
2023-03-04T01:24:32.342Z,7.57
2023-03-04T01:26:58.981Z,7.13
2023-03-04T01:29:25.819Z,7.22
2023-03-04T01:31:52.481Z,6.57
2023-03-04T01:34:20.328Z,7.80
2023-03-04T01:36:46.964Z,7.47
2023-03-04T01:39:13.612Z,7.63
2023-03-04T01:41:40.514Z,7.35
2023-03-04T01:44:09.542Z,8.10
2023-03-04T01:46:37.269Z,6.53
2023-03-04T01:49:06.311Z,6.97
2023-03-04T01:51:32.979Z,6.80
2023-03-04T01:53:59.729Z,6.47
2023-03-04T01:56:34.545Z,6.13
2023-03-04T01:59:16.969Z,6.60
2023-03-04T02:01:50.059Z,7.25
2023-03-04T02:04:19.038Z,6.00
2023-03-04T02:06:47.198Z,6.63
2023-03-04T02:09:15.866Z,7.30
2023-03-04T02:11:44.461Z,6.75
2023-03-04T02:14:12.574Z,6.57
2023-03-04T02:16:39.426Z,6.85
2023-03-04T02:19:27.551Z,6.47
2023-03-04T02:21:54.290Z,6.03
2023-03-04T02:24:39.218Z,6.40
2023-03-04T02:27:06.209Z,5.65
2023-03-04T02:29:33.062Z,5.60
2023-03-04T02:31:59.963Z,7.00
2023-03-04T02:34:32.973Z,5.88
2023-03-04T02:37:01.549Z,6.25
2023-03-04T02:39:40.416Z,5.97
2023-03-04T02:42:08.023Z,5.88
2023-03-04T02:44:37.590Z,5.43
2023-03-04T02:47:07.707Z,6.20
2023-03-04T02:49:37.071Z,5.38
2023-03-04T02:52:05.365Z,6.05
2023-03-04T02:54:33.044Z,5.90
2023-03-04T02:57:05.492Z,5.75
2023-03-04T02:59:35.942Z,6.25
2023-03-04T03:02:03.470Z,6.10
2023-03-04T03:04:30.332Z,6.05
2023-03-04T03:06:57.243Z,6.15
2023-03-04T03:09:24.975Z,7.38
2023-03-04T03:11:51.771Z,5.47
2023-03-04T03:14:19.583Z,6.45
2023-03-04T03:16:46.324Z,6.57
2023-03-04T03:19:12.931Z,6.93
2023-03-04T03:21:40.320Z,7.05
2023-03-04T03:24:06.937Z,7.40
2023-03-04T03:26:33.545Z,9.07
2023-03-04T03:29:00.217Z,7.20
2023-03-04T03:31:28.320Z,6.40
2023-03-04T03:33:54.942Z,7.53
2023-03-04T03:36:22.044Z,7.07
2023-03-04T03:38:48.735Z,6.63
2023-03-04T03:41:15.431Z,6.95
2023-03-04T03:43:42.045Z,6.88
2023-03-04T03:46:08.773Z,7.63
2023-03-04T03:48:36.906Z,7.22
2023-03-04T03:51:03.802Z,6.55
2023-03-04T03:53:30.435Z,6.88
2023-03-04T03:55:57.106Z,6.45
2023-03-04T03:58:23.694Z,7.10
2023-03-04T04:00:50.578Z,7.00
2023-03-04T04:03:18.082Z,7.22
2023-03-04T04:05:44.888Z,7.63
2023-03-04T04:08:14.562Z,7.85
2023-03-04T04:10:42.040Z,7.22
2023-03-04T04:13:09.515Z,7.00
2023-03-04T04:15:38.550Z,7.78
2023-03-04T04:18:06.373Z,7.47
2023-03-04T04:20:33.409Z,7.65
2023-03-04T04:22:59.994Z,6.93
2023-03-04T04:25:26.783Z,8.02
2023-03-04T04:27:53.477Z,7.63
2023-03-04T04:30:20.426Z,7.05
2023-03-04T04:32:47.103Z,7.63
2023-03-04T04:35:13.763Z,8.65
2023-03-04T04:37:40.410Z,7.38
2023-03-04T04:40:07.751Z,8.05
2023-03-04T04:42:34.533Z,7.93
2023-03-04T04:45:01.330Z,7.82
2023-03-04T04:47:27.946Z,8.07
2023-03-04T04:49:55.842Z,8.00
2023-03-04T04:52:22.450Z,8.65
2023-03-04T04:54:49.170Z,8.85
2023-03-04T04:57:15.808Z,7.25
2023-03-04T04:59:42.447Z,8.13
2023-03-04T05:02:09.207Z,8.07
2023-03-04T05:04:36.086Z,8.20
2023-03-04T05:07:02.685Z,7.47
2023-03-04T05:09:29.382Z,7.57
2023-03-04T05:11:56.037Z,8.05
2023-03-04T05:14:22.705Z,7.72
2023-03-04T05:16:49.310Z,6.85
2023-03-04T05:19:16.200Z,7.93
2023-03-04T05:21:42.840Z,7.72
2023-03-04T05:24:09.669Z,8.65
2023-03-04T05:26:36.590Z,8.15
2023-03-04T05:29:03.757Z,7.72
2023-03-04T05:31:30.725Z,9.05
2023-03-04T05:33:57.521Z,6.88
2023-03-04T05:36:24.293Z,6.93
2023-03-04T05:38:50.993Z,6.82
2023-03-04T05:41:20.441Z,7.65
2023-03-04T05:43:47.241Z,7.00
2023-03-04T05:46:16.462Z,7.55
2023-03-04T05:48:43.886Z,7.30
2023-03-04T05:51:11.059Z,7.57
2023-03-04T05:53:37.815Z,7.80
2023-03-04T05:56:12.616Z,7.55
2023-03-04T05:58:39.568Z,8.70
2023-03-04T06:01:06.603Z,7.65
2023-03-04T06:03:33.927Z,7.85
2023-03-04T06:06:00.674Z,7.50
2023-03-04T06:08:27.853Z,7.32
2023-03-04T06:10:56.483Z,8.65
2023-03-04T06:13:23.544Z,8.55
2023-03-04T06:15:55.636Z,8.43
2023-03-04T06:18:23.319Z,7.32
2023-03-04T06:20:49.988Z,8.18
2023-03-04T06:23:17.117Z,8.70
2023-03-04T06:25:43.763Z,7.90
2023-03-04T06:28:10.368Z,8.80
2023-03-04T06:30:37.044Z,6.95
2023-03-04T06:33:03.826Z,8.15
2023-03-04T06:35:30.505Z,7.57
2023-03-04T06:37:57.365Z,7.78
2023-03-04T06:40:23.970Z,7.90
2023-03-04T06:42:50.653Z,8.35
2023-03-04T06:45:17.444Z,8.68
2023-03-04T06:47:45.109Z,7.85
2023-03-04T06:50:13.528Z,7.63
2023-03-04T06:52:40.582Z,7.57
2023-03-04T06:55:08.023Z,7.80
2023-03-04T06:57:35.051Z,8.25
2023-03-04T07:00:03.392Z,7.65
2023-03-04T07:02:30.147Z,8.13
2023-03-04T07:04:56.885Z,9.13
2023-03-04T07:07:23.906Z,8.88
2023-03-04T07:09:50.498Z,7.93
2023-03-04T07:12:17.169Z,7.78
2023-03-04T07:14:43.813Z,7.90
2023-03-04T07:17:10.542Z,9.63
2023-03-04T07:19:37.437Z,9.40
2023-03-04T07:22:04.360Z,9.05
2023-03-04T07:24:30.979Z,9.00
2023-03-04T07:26:57.668Z,9.90
2023-03-04T07:29:24.484Z,8.98
2023-03-04T07:31:53.598Z,8.23
2023-03-04T07:34:20.540Z,9.38
2023-03-04T07:36:47.271Z,9.07
2023-03-04T07:39:14.287Z,9.48
2023-03-04T07:41:41.481Z,8.98
2023-03-04T07:44:10.710Z,10.00
2023-03-04T07:46:39.026Z,9.35
2023-03-04T07:49:05.647Z,9.35
2023-03-04T07:51:32.343Z,9.80
2023-03-04T07:54:01.257Z,9.32
2023-03-04T07:56:31.124Z,9.60
2023-03-04T07:58:58.578Z,10.50
2023-03-04T08:01:36.760Z,10.55
2023-03-04T08:04:05.710Z,10.23
2023-03-04T08:06:32.752Z,10.10
2023-03-04T08:09:02.208Z,10.73
2023-03-04T08:11:30.332Z,11.15
2023-03-04T08:13:57.465Z,10.38
2023-03-04T08:16:24.525Z,10.45
2023-03-04T08:18:55.983Z,9.70
2023-03-04T08:21:23.778Z,10.30
2023-03-04T08:23:51.856Z,10.88
2023-03-04T08:26:25.155Z,11.43
2023-03-04T08:28:52.847Z,10.43
2023-03-04T08:31:20.381Z,10.93
2023-03-04T08:33:47.104Z,10.95
2023-03-04T08:36:15.098Z,10.40
2023-03-04T08:38:41.968Z,11.68
2023-03-04T08:41:08.594Z,11.10
2023-03-04T08:43:35.354Z,11.13
2023-03-04T08:46:02.529Z,10.73
2023-03-04T08:48:29.254Z,10.45
2023-03-04T08:50:56.046Z,10.70
2023-03-04T08:53:22.719Z,10.90
2023-03-04T08:55:51.926Z,10.45
2023-03-04T08:58:19.039Z,9.90
2023-03-04T09:00:51.576Z,9.60
2023-03-04T09:03:19.721Z,9.48
2023-03-04T09:05:48.247Z,9.77
2023-03-04T09:08:16.120Z,9.35
2023-03-04T09:10:43.724Z,8.82
2023-03-04T09:13:11.559Z,9.02
2023-03-04T09:15:43.799Z,9.07
2023-03-04T09:18:10.721Z,8.60
2023-03-04T09:20:37.361Z,8.18
2023-03-04T09:23:04.069Z,7.75
2023-03-04T09:25:30.708Z,8.55
2023-03-04T09:27:57.432Z,8.35
2023-03-04T09:30:24.520Z,8.10
2023-03-04T09:32:51.407Z,7.93
2023-03-04T09:35:18.919Z,8.45
2023-03-04T09:37:46.776Z,8.35
2023-03-04T09:40:19.850Z,7.72
2023-03-04T09:42:51.992Z,8.35
2023-03-04T09:45:23.051Z,7.72
2023-03-04T09:47:54.292Z,8.00
2023-03-04T09:50:22.088Z,9.65
2023-03-04T09:53:07.782Z,8.88
2023-03-04T09:55:40.484Z,8.52
2023-03-04T09:58:16.053Z,7.55
2023-03-04T10:03:14.336Z,7.75
2023-03-04T10:06:21.054Z,6.95
2023-03-04T10:08:53.784Z,8.52
2023-03-04T10:11:46.562Z,7.20
2023-03-04T10:14:22.195Z,8.02
2023-03-04T10:19:23.618Z,7.85
2023-03-04T10:21:52.115Z,7.57
2023-03-04T10:24:22.706Z,7.60
2023-03-04T10:27:01.559Z,7.72
2023-03-04T10:29:31.599Z,7.43
2023-03-04T10:31:58.414Z,7.65
2023-03-04T10:34:25.209Z,7.10
2023-03-04T10:37:07.661Z,6.93
2023-03-04T10:39:43.776Z,6.68
2023-03-04T10:42:16.454Z,6.07
2023-03-04T10:44:51.388Z,7.30
2023-03-04T10:47:18.201Z,6.60
2023-03-04T10:49:53.829Z,7.25
2023-03-04T10:52:29.852Z,7.30
2023-03-04T10:55:00.610Z,6.72
2023-03-04T10:57:34.039Z,6.88
2023-03-04T11:00:02.172Z,6.80
2023-03-04T11:02:36.457Z,6.75
2023-03-04T11:05:20.162Z,6.88
2023-03-04T11:07:55.059Z,8.95
2023-03-04T11:10:23.105Z,8.50
2023-03-04T11:13:02.405Z,7.70
2023-03-04T11:15:52.433Z,8.52
2023-03-04T11:18:39.038Z,7.82
2023-03-04T11:21:07.767Z,8.05
2023-03-04T11:23:54.885Z,8.68
2023-03-04T11:26:28.553Z,7.80
2023-03-04T11:29:01.482Z,8.88
2023-03-04T11:31:40.274Z,9.88
2023-03-04T11:34:20.322Z,11.00
2023-03-04T11:37:15.055Z,10.07
2023-03-04T11:40:16.593Z,9.40
2023-03-04T11:42:50.927Z,8.77
2023-03-04T11:45:30.114Z,8.23
2023-03-04T11:48:00.777Z,9.50
2023-03-04T11:50:45.825Z,10.13
2023-03-04T11:53:18.684Z,10.57
2023-03-04T11:56:17.844Z,9.82
2023-03-04T11:59:03.231Z,9.25
2023-03-04T12:01:55.832Z,8.70
2023-03-04T12:04:50.250Z,8.90
2023-03-04T12:07:38.336Z,8.95
2023-03-04T12:10:15.042Z,7.78
2023-03-04T12:12:44.658Z,9.90
2023-03-04T12:15:23.915Z,9.55
2023-03-04T12:18:08.963Z,9.27
2023-03-04T12:20:44.915Z,9.70
2023-03-04T12:23:26.722Z,9.60
2023-03-04T12:26:17.019Z,8.48
2023-03-04T12:29:03.051Z,8.57
2023-03-04T12:34:10.089Z,8.63
2023-03-04T12:36:51.868Z,8.85
2023-03-04T12:39:39.551Z,9.15
2023-03-04T12:42:34.647Z,8.98
2023-03-04T12:45:16.189Z,8.75
2023-03-04T12:48:09.386Z,8.55
2023-03-04T12:50:57.615Z,8.20
2023-03-04T12:53:42.611Z,7.50
2023-03-04T12:56:23.359Z,8.02
2023-03-04T12:58:50.925Z,7.88
2023-03-04T13:01:29.787Z,7.07
2023-03-04T13:04:09.810Z,7.60
2023-03-04T13:06:47.310Z,7.90
2023-03-04T13:09:42.487Z,7.75
2023-03-04T13:12:22.011Z,7.75
2023-03-04T13:15:07.527Z,7.85
2023-03-04T13:17:42.743Z,7.38
2023-03-04T13:20:31.061Z,8.13
2023-03-04T13:23:05.660Z,6.75
2023-03-04T13:25:43.982Z,8.87
2023-03-04T13:28:11.001Z,7.53
2023-03-04T13:30:40.467Z,6.70
2023-03-04T13:33:10.558Z,7.40
2023-03-04T13:35:49.272Z,8.15
2023-03-04T13:38:37.346Z,7.75
2023-03-04T13:41:19.426Z,7.90
2023-03-04T13:43:49.777Z,7.53
2023-03-04T13:46:19.366Z,8.18
2023-03-04T13:48:54.310Z,8.00
2023-03-04T13:51:41.378Z,7.63
2023-03-04T13:54:13.893Z,7.65
2023-03-04T13:56:42.794Z,8.10
2023-03-04T13:59:09.429Z,8.48
2023-03-04T14:01:43.223Z,8.07
2023-03-04T14:04:15.730Z,7.93
2023-03-04T14:06:45.549Z,7.53
2023-03-04T14:09:23.083Z,7.88
2023-03-04T14:11:58.666Z,8.13
2023-03-04T14:14:37.539Z,8.70
2023-03-04T14:17:06.714Z,7.38
2023-03-04T14:19:38.695Z,8.73
2023-03-04T14:22:39.397Z,7.97
2023-03-04T14:25:13.391Z,7.40
2023-03-04T14:27:40.720Z,8.10
2023-03-04T14:30:39.011Z,8.98
2023-03-04T14:33:14.618Z,8.27
2023-03-04T14:35:47.394Z,7.82
2023-03-04T14:38:23.955Z,8.52
2023-03-04T14:40:57.230Z,7.45
2023-03-04T14:43:24.363Z,7.57
2023-03-04T14:45:58.077Z,8.10
2023-03-04T14:48:27.776Z,8.43
2023-03-04T14:50:56.092Z,9.05
2023-03-04T14:53:28.445Z,9.55
2023-03-04T14:56:02.859Z,9.65
2023-03-04T14:58:32.692Z,9.57
2023-03-04T15:01:16.306Z,10.27
2023-03-04T15:03:53.427Z,10.13
2023-03-04T15:06:23.141Z,11.20
2023-03-04T15:08:58.366Z,9.18
2023-03-04T15:11:32.163Z,10.38
2023-03-04T15:14:00.474Z,12.77
2023-03-04T15:16:30.601Z,12.55
2023-03-04T15:19:05.770Z,12.77
2023-03-04T15:21:38.482Z,13.38
2023-03-04T15:24:08.293Z,12.35
2023-03-04T15:26:39.950Z,14.05
2023-03-04T15:29:19.017Z,14.25
2023-03-04T15:31:48.407Z,13.02
2023-03-04T15:34:17.106Z,14.10
2023-03-04T15:36:49.752Z,14.15
2023-03-04T15:39:18.055Z,13.68
2023-03-04T15:41:46.973Z,13.48
2023-03-04T15:44:13.802Z,14.63
2023-03-04T15:46:40.496Z,14.20
2023-03-04T15:49:07.384Z,13.40
2023-03-04T15:51:34.077Z,15.05
2023-03-04T15:54:00.981Z,14.30
2023-03-04T15:56:31.093Z,14.38
2023-03-04T15:59:01.646Z,14.45
2023-03-04T16:01:28.551Z,14.73
2023-03-04T16:03:55.257Z,15.05
2023-03-04T16:06:30.806Z,14.50
2023-03-04T16:11:27.816Z,13.90
2023-03-04T16:13:54.564Z,15.05
2023-03-04T16:16:21.662Z,14.75
2023-03-04T16:18:48.654Z,15.13
2023-03-04T16:21:18.939Z,13.68
2023-03-04T16:23:49.131Z,15.55
2023-03-04T16:26:25.128Z,14.90
2023-03-04T16:28:52.584Z,14.43
2023-03-04T16:31:20.518Z,13.32
2023-03-04T16:33:47.734Z,14.85
2023-03-04T16:36:23.800Z,15.90
2023-03-04T16:38:51.723Z,16.25
2023-03-04T16:41:22.730Z,14.77
2023-03-04T16:43:49.507Z,15.55
2023-03-04T16:46:16.168Z,14.88
2023-03-04T16:48:43.308Z,14.90
2023-03-04T16:51:16.402Z,14.70
2023-03-04T16:53:47.963Z,15.27
2023-03-04T16:56:19.541Z,15.57
2023-03-04T16:58:46.979Z,14.95
2023-03-04T17:01:28.579Z,14.40
2023-03-04T17:03:56.144Z,16.02
2023-03-04T17:06:23.532Z,15.40
2023-03-04T17:08:50.333Z,17.30
2023-03-04T17:11:21.367Z,17.33
2023-03-04T17:13:48.795Z,14.63
2023-03-04T17:16:16.078Z,14.43
2023-03-04T17:18:45.672Z,13.20
2023-03-04T17:21:15.580Z,12.40
2023-03-04T17:23:42.431Z,10.57
2023-03-04T17:26:09.368Z,7.88
2023-03-04T17:28:36.936Z,8.35
2023-03-04T17:31:14.688Z,7.80
2023-03-04T17:33:43.783Z,8.20
2023-03-04T17:36:12.254Z,8.50
2023-03-04T17:38:39.156Z,8.57
2023-03-04T17:41:08.458Z,9.32
2023-03-04T17:43:35.140Z,8.48
2023-03-04T17:46:06.813Z,8.70
2023-03-04T17:48:33.923Z,7.22
2023-03-04T17:51:00.896Z,8.25
2023-03-04T17:53:27.710Z,9.75
2023-03-04T17:56:02.204Z,6.60
2023-03-04T17:58:30.869Z,7.07
2023-03-04T18:01:06.972Z,7.45
2023-03-04T18:03:33.637Z,7.40
2023-03-04T18:06:00.300Z,6.03
2023-03-04T18:08:27.054Z,7.07
2023-03-04T18:10:53.775Z,7.82
2023-03-04T18:13:20.941Z,6.20
2023-03-04T18:15:47.657Z,6.82
2023-03-04T18:18:14.380Z,6.95
2023-03-04T18:20:41.130Z,6.57
2023-03-04T18:23:08.027Z,7.10
2023-03-04T18:25:35.084Z,6.53
2023-03-04T18:28:01.911Z,7.50
2023-03-04T18:30:28.673Z,7.80
2023-03-04T18:32:56.811Z,7.60
2023-03-04T18:35:23.522Z,7.00
2023-03-04T18:37:50.328Z,8.07
2023-03-04T18:40:17.414Z,8.18
2023-03-04T18:42:44.377Z,9.18
2023-03-04T18:45:16.119Z,9.70
2023-03-04T18:47:47.050Z,10.65
2023-03-04T18:50:14.417Z,10.18
2023-03-04T18:52:41.293Z,9.43
2023-03-04T18:55:08.665Z,9.45
2023-03-04T18:57:37.506Z,11.38
2023-03-04T19:00:05.983Z,11.25
2023-03-04T19:02:36.803Z,9.63
2023-03-04T19:05:07.975Z,9.05
2023-03-04T19:07:34.763Z,9.02
2023-03-04T19:10:01.444Z,9.45
2023-03-04T19:12:28.282Z,9.68
2023-03-04T19:14:54.918Z,9.48
2023-03-04T19:17:21.567Z,10.40
2023-03-04T19:19:48.234Z,9.60
2023-03-04T19:22:15.004Z,8.95
2023-03-04T19:24:41.559Z,9.00
2023-03-04T19:27:08.408Z,7.50
2023-03-04T19:29:35.259Z,7.65
2023-03-04T19:32:02.027Z,7.15
2023-03-04T19:34:29.045Z,6.90
2023-03-04T19:36:55.723Z,7.90
2023-03-04T19:39:22.341Z,8.02
2023-03-04T19:41:49.239Z,8.10
2023-03-04T19:44:16.882Z,6.90
2023-03-04T19:46:43.646Z,7.05
2023-03-04T19:49:10.339Z,6.85
2023-03-04T19:51:37.411Z,9.15
2023-03-04T19:54:04.461Z,9.00
2023-03-04T19:56:31.683Z,9.93
2023-03-04T19:58:58.630Z,9.07
2023-03-04T20:01:29.401Z,9.32
2023-03-04T20:03:58.511Z,8.60
2023-03-04T20:06:27.098Z,8.57
2023-03-04T20:08:58.015Z,9.05
2023-03-04T20:11:26.333Z,7.32
2023-03-04T20:13:54.310Z,8.02
2023-03-04T20:16:21.248Z,7.30
2023-03-04T20:18:47.916Z,8.32
2023-03-04T20:21:14.784Z,8.05
2023-03-04T20:23:41.425Z,7.78
2023-03-04T20:26:08.158Z,8.90
2023-03-04T20:28:49.234Z,9.13
2023-03-04T20:31:21.188Z,9.70
2023-03-04T20:33:49.285Z,10.10
2023-03-04T20:36:17.522Z,9.35
2023-03-04T20:38:44.805Z,10.82
2023-03-04T20:41:11.762Z,10.77
2023-03-04T20:43:38.573Z,9.45
2023-03-04T20:46:45.098Z,10.38
2023-03-04T20:49:11.823Z,9.93
2023-03-04T20:51:38.971Z,10.93
2023-03-04T20:54:07.144Z,13.00
2023-03-04T20:56:34.739Z,12.85
2023-03-04T20:59:04.399Z,11.63
2023-03-04T21:01:32.083Z,11.52
2023-03-04T21:04:00.451Z,12.50
2023-03-04T21:06:30.923Z,11.00
2023-03-04T21:09:01.651Z,12.27
2023-03-04T21:11:28.382Z,11.65
2023-03-04T21:13:57.567Z,11.90
2023-03-04T21:16:27.002Z,12.43
2023-03-04T21:18:53.794Z,11.48
2023-03-04T21:21:23.264Z,11.77
2023-03-04T21:23:52.214Z,11.25
2023-03-04T21:26:20.521Z,11.77
2023-03-04T21:28:47.757Z,10.88
2023-03-04T21:31:16.992Z,11.27
2023-03-04T21:33:45.571Z,12.40
2023-03-04T21:36:13.885Z,12.52
2023-03-04T21:38:41.927Z,12.52
2023-03-04T21:41:20.401Z,12.60
2023-03-04T21:43:47.355Z,13.20
2023-03-04T21:46:15.531Z,12.23
2023-03-04T21:48:43.271Z,13.98
2023-03-04T21:51:12.966Z,13.85
2023-03-04T21:53:39.808Z,12.57
2023-03-04T21:56:06.708Z,11.05
2023-03-04T21:58:35.322Z,11.35
2023-03-04T22:01:10.157Z,11.45
2023-03-04T22:03:37.372Z,11.52
2023-03-04T22:06:06.187Z,11.20
2023-03-04T22:08:33.173Z,10.35
2023-03-04T22:11:04.443Z,11.68
2023-03-04T22:13:31.736Z,11.27
2023-03-04T22:15:58.725Z,10.63
2023-03-04T22:18:26.802Z,10.88
2023-03-04T22:21:03.648Z,10.95
2023-03-04T22:23:31.205Z,10.32
2023-03-04T22:26:02.895Z,11.32
2023-03-04T22:28:30.715Z,10.23
2023-03-04T22:30:58.239Z,9.50
2023-03-04T22:33:25.515Z,11.00
2023-03-04T22:35:53.012Z,10.48
2023-03-04T22:38:21.594Z,11.27
2023-03-04T22:40:49.219Z,9.73
2023-03-04T22:43:16.008Z,9.82
2023-03-04T22:45:42.673Z,9.45
2023-03-04T22:48:09.401Z,9.60
2023-03-04T22:50:36.550Z,8.93
2023-03-04T22:53:04.820Z,10.00
2023-03-04T22:55:31.459Z,10.10
2023-03-04T22:57:58.198Z,10.20
2023-03-04T23:00:27.079Z,11.13
2023-03-04T23:02:54.755Z,11.40
2023-03-04T23:05:22.350Z,11.38
2023-03-04T23:07:51.338Z,10.07
2023-03-04T23:10:24.489Z,9.90
2023-03-04T23:12:52.080Z,10.35
2023-03-04T23:15:19.469Z,10.18
2023-03-04T23:17:46.567Z,10.00
2023-03-04T23:20:17.549Z,10.02
2023-03-04T23:22:45.218Z,10.20
2023-03-04T23:25:12.760Z,9.63
2023-03-04T23:27:39.853Z,9.43
2023-03-04T23:30:14.818Z,10.75
2023-03-04T23:32:42.018Z,9.10
2023-03-04T23:35:09.090Z,9.85
2023-03-04T23:37:35.974Z,10.68
2023-03-04T23:40:03.282Z,11.02
2023-03-04T23:42:32.063Z,12.23
2023-03-04T23:44:58.705Z,10.95
2023-03-04T23:47:25.455Z,10.02
2023-03-04T23:49:52.090Z,11.77
2023-03-04T23:52:18.792Z,10.75
2023-03-04T23:54:45.462Z,11.85
2023-03-04T23:57:12.191Z,11.90
2023-03-04T23:59:39.838Z,11.32
